createdAt,value
2023-05-17T00:00:00.101Z,966.39
2023-05-17T00:01:00.298Z,966.37
2023-05-17T00:01:59.991Z,966.37
2023-05-17T00:03:00.220Z,966.36
2023-05-17T00:03:59.909Z,966.33
2023-05-17T00:05:00.173Z,966.33
2023-05-17T00:05:59.851Z,966.30
2023-05-17T00:06:59.926Z,966.34
2023-05-17T00:07:59.728Z,966.32
2023-05-17T00:08:59.702Z,966.34
2023-05-17T00:09:59.752Z,966.35
2023-05-17T00:10:59.588Z,966.35
2023-05-17T00:11:59.759Z,966.37
2023-05-17T00:12:59.622Z,966.39
2023-05-17T00:13:59.581Z,966.36
2023-05-17T00:14:59.404Z,966.39
2023-05-17T00:15:59.586Z,966.36
2023-05-17T00:16:59.329Z,966.38
2023-05-17T00:17:59.468Z,966.37
2023-05-17T00:18:59.355Z,966.34
2023-05-17T00:19:59.452Z,966.32
2023-05-17T00:20:59.148Z,966.34
2023-05-17T00:21:59.221Z,966.32
2023-05-17T00:22:59.055Z,966.31
2023-05-17T00:23:59.231Z,966.31
2023-05-17T00:24:58.975Z,966.29
2023-05-17T00:25:58.920Z,966.32
2023-05-17T00:26:58.892Z,966.31
2023-05-17T00:27:59.059Z,966.26
2023-05-17T00:28:58.859Z,966.28
2023-05-17T00:29:58.870Z,966.27
2023-05-17T00:30:58.921Z,966.26
2023-05-17T00:31:58.651Z,966.28
2023-05-17T00:32:58.762Z,966.28
2023-05-17T00:33:58.594Z,966.28
2023-05-17T00:34:58.776Z,966.26
2023-05-17T00:35:58.537Z,966.26
2023-05-17T00:36:58.508Z,966.25
2023-05-17T00:37:58.377Z,966.26
2023-05-17T00:38:58.521Z,966.25
2023-05-17T00:39:58.294Z,966.26
2023-05-17T00:40:58.347Z,966.23
2023-05-17T00:41:58.400Z,966.26
2023-05-17T00:42:58.163Z,966.28
2023-05-17T00:43:58.105Z,966.29
2023-05-17T00:44:58.158Z,966.26
2023-05-17T00:45:58.022Z,966.28
2023-05-17T00:46:58.171Z,966.30
2023-05-17T00:47:58.120Z,966.25
2023-05-17T00:48:57.881Z,966.32
2023-05-17T00:49:57.886Z,966.32
2023-05-17T00:50:57.994Z,966.30
2023-05-17T00:51:57.753Z,966.30
2023-05-17T00:52:58.019Z,966.30
2023-05-17T00:53:57.665Z,966.27
2023-05-17T00:54:57.616Z,966.33
2023-05-17T00:55:57.834Z,966.32
2023-05-17T00:56:57.516Z,966.33
2023-05-17T00:57:57.638Z,966.30
2023-05-17T00:58:57.496Z,966.32
2023-05-17T00:59:57.655Z,966.34
2023-05-17T01:00:57.337Z,966.31
2023-05-17T01:01:57.465Z,966.29
2023-05-17T01:02:57.308Z,966.31
2023-05-17T01:03:57.597Z,966.34
2023-05-17T01:04:57.417Z,966.29
2023-05-17T01:05:57.297Z,966.31
2023-05-17T01:06:57.078Z,966.34
2023-05-17T01:07:57.305Z,966.30
2023-05-17T01:08:57.029Z,966.31
2023-05-17T01:09:57.111Z,966.30
2023-05-17T01:10:56.897Z,966.33
2023-05-17T01:11:56.991Z,966.28
2023-05-17T01:12:56.799Z,966.28
2023-05-17T01:13:57.975Z,966.28
2023-05-17T01:14:56.705Z,966.29
2023-05-17T01:15:56.949Z,966.33
2023-05-17T01:16:56.622Z,966.32
2023-05-17T01:17:56.667Z,966.33
2023-05-17T01:18:56.656Z,966.33
2023-05-17T01:19:56.993Z,966.35
2023-05-17T01:20:56.437Z,966.32
2023-05-17T01:21:56.788Z,966.35
2023-05-17T01:22:56.340Z,966.34
2023-05-17T01:23:56.312Z,966.35
2023-05-17T01:24:56.255Z,966.40
2023-05-17T01:25:56.430Z,966.39
2023-05-17T01:26:56.192Z,966.39
2023-05-17T01:27:56.427Z,966.38
2023-05-17T01:28:56.075Z,966.36
2023-05-17T01:29:56.031Z,966.36
2023-05-17T01:30:56.244Z,966.35
2023-05-17T01:31:55.937Z,966.35
2023-05-17T01:32:56.141Z,966.35
2023-05-17T01:33:56.196Z,966.40
2023-05-17T01:34:55.803Z,966.35
2023-05-17T01:35:55.763Z,966.39
2023-05-17T01:36:55.881Z,966.40
2023-05-17T01:37:55.692Z,966.39
2023-05-17T01:38:55.901Z,966.39
2023-05-17T01:39:55.596Z,966.39
2023-05-17T01:40:55.545Z,966.41
2023-05-17T01:41:55.495Z,966.40
2023-05-17T01:42:55.752Z,966.38
2023-05-17T01:43:55.587Z,966.41
2023-05-17T01:44:55.524Z,966.41
2023-05-17T01:45:55.322Z,966.40
2023-05-17T01:46:55.260Z,966.40
2023-05-17T01:47:55.401Z,966.36
2023-05-17T01:48:55.293Z,966.37
2023-05-17T01:49:55.398Z,966.39
2023-05-17T01:50:55.083Z,966.38
2023-05-17T01:51:55.169Z,966.39
2023-05-17T01:52:54.991Z,966.43
2023-05-17T01:53:55.191Z,966.38
2023-05-17T01:54:55.271Z,966.41
2023-05-17T01:55:54.998Z,966.40
2023-05-17T01:56:54.819Z,966.40
2023-05-17T01:57:55.013Z,966.39
2023-05-17T01:58:54.738Z,966.42
2023-05-17T01:59:54.823Z,966.40
2023-05-17T02:00:54.671Z,966.41
2023-05-17T02:01:54.841Z,966.38
2023-05-17T02:02:54.590Z,966.40
2023-05-17T02:03:54.559Z,966.43
2023-05-17T02:04:54.525Z,966.46
2023-05-17T02:05:54.656Z,966.43
2023-05-17T02:06:54.382Z,966.45
2023-05-17T02:07:54.464Z,966.43
2023-05-17T02:08:54.271Z,966.42
2023-05-17T02:09:54.234Z,966.41
2023-05-17T02:10:54.496Z,966.39
2023-05-17T02:11:54.312Z,966.37
2023-05-17T02:12:54.302Z,966.35
2023-05-17T02:13:54.050Z,966.36
2023-05-17T02:14:54.156Z,966.38
2023-05-17T02:15:53.962Z,966.35
2023-05-17T02:16:54.125Z,966.33
2023-05-17T02:17:54.251Z,966.35
2023-05-17T02:18:54.048Z,966.35
2023-05-17T02:19:53.786Z,966.35
2023-05-17T02:20:53.949Z,966.34
2023-05-17T02:21:53.685Z,966.32
2023-05-17T02:22:53.761Z,966.33
2023-05-17T02:23:53.631Z,966.36
2023-05-17T02:24:53.775Z,966.30
2023-05-17T02:25:53.639Z,966.31
2023-05-17T02:26:53.464Z,966.35
2023-05-17T02:27:53.413Z,966.35
2023-05-17T02:28:53.500Z,966.36
2023-05-17T02:29:53.367Z,966.37
2023-05-17T02:30:53.522Z,966.33
2023-05-17T02:31:53.248Z,966.35
2023-05-17T02:32:53.305Z,966.36
2023-05-17T02:33:53.487Z,966.38
2023-05-17T02:34:53.343Z,966.38
2023-05-17T02:35:53.061Z,966.40
2023-05-17T02:36:53.156Z,966.39
2023-05-17T02:37:52.967Z,966.38
2023-05-17T02:38:52.926Z,966.37
2023-05-17T02:39:52.907Z,966.39
2023-05-17T02:40:52.966Z,966.38
2023-05-17T02:41:52.797Z,966.35
2023-05-17T02:42:52.992Z,966.38
2023-05-17T02:43:52.845Z,966.32
2023-05-17T02:44:52.839Z,966.31
2023-05-17T02:45:52.602Z,966.32
2023-05-17T02:46:52.871Z,966.30
2023-05-17T02:47:52.527Z,966.29
2023-05-17T02:48:52.640Z,966.27
2023-05-17T02:49:52.627Z,966.27
2023-05-17T02:50:52.371Z,966.31
2023-05-17T02:51:52.646Z,966.31
2023-05-17T02:52:52.283Z,966.33
2023-05-17T02:53:52.450Z,966.28
2023-05-17T02:54:52.509Z,966.30
2023-05-17T02:55:52.325Z,966.29
2023-05-17T02:56:52.104Z,966.31
2023-05-17T02:57:52.276Z,966.34
2023-05-17T02:58:52.019Z,966.33
2023-05-17T02:59:52.090Z,966.33
2023-05-17T03:00:51.973Z,966.35
2023-05-17T03:01:52.153Z,966.31
2023-05-17T03:02:51.868Z,966.35
2023-05-17T03:03:52.220Z,966.33
2023-05-17T03:04:51.769Z,966.35
2023-05-17T03:05:51.929Z,966.36
2023-05-17T03:06:51.649Z,966.35
2023-05-17T03:07:51.598Z,966.37
2023-05-17T03:08:51.560Z,966.40
2023-05-17T03:09:51.964Z,966.39
2023-05-17T03:10:51.468Z,966.40
2023-05-17T03:11:51.557Z,966.41
2023-05-17T03:12:51.380Z,966.38
2023-05-17T03:13:51.340Z,966.42
2023-05-17T03:14:51.584Z,966.40
2023-05-17T03:15:51.272Z,966.42
2023-05-17T03:16:51.397Z,966.45
2023-05-17T03:17:51.213Z,966.49
2023-05-17T03:18:51.212Z,966.47
2023-05-17T03:19:51.111Z,966.47
2023-05-17T03:20:51.217Z,966.48
2023-05-17T03:21:50.989Z,966.49
2023-05-17T03:22:51.249Z,966.48
2023-05-17T03:23:51.164Z,966.48
2023-05-17T03:24:50.833Z,966.49
2023-05-17T03:25:50.794Z,966.50
2023-05-17T03:26:51.054Z,966.53
2023-05-17T03:27:50.717Z,966.51
2023-05-17T03:28:50.866Z,966.55
2023-05-17T03:29:50.607Z,966.52
2023-05-17T03:30:50.592Z,966.54
2023-05-17T03:31:50.515Z,966.50
2023-05-17T03:32:50.978Z,966.49
2023-05-17T03:33:50.567Z,966.50
2023-05-17T03:34:50.749Z,966.47
2023-05-17T03:35:50.338Z,966.48
2023-05-17T03:36:50.571Z,966.52
2023-05-17T03:37:50.530Z,966.52
2023-05-17T03:38:50.213Z,966.47
2023-05-17T03:39:50.243Z,966.48
2023-05-17T03:40:50.137Z,966.52
2023-05-17T03:41:50.255Z,966.52
2023-05-17T03:42:50.082Z,966.47
2023-05-17T03:43:50.060Z,966.48
2023-05-17T03:44:49.926Z,966.50
2023-05-17T03:45:50.072Z,966.48
2023-05-17T03:46:49.829Z,966.51
2023-05-17T03:47:49.831Z,966.50
2023-05-17T03:48:49.893Z,966.49
2023-05-17T03:49:49.893Z,966.50
2023-05-17T03:50:49.658Z,966.51
2023-05-17T03:51:49.706Z,966.53
2023-05-17T03:52:49.974Z,966.52
2023-05-17T03:53:49.519Z,966.54
2023-05-17T03:54:49.521Z,966.53
2023-05-17T03:55:49.436Z,966.54
2023-05-17T03:56:49.537Z,966.55
2023-05-17T03:57:49.336Z,966.55
2023-05-17T03:58:49.556Z,966.57
2023-05-17T03:59:49.272Z,966.56
2023-05-17T04:00:49.377Z,966.54
2023-05-17T04:01:49.255Z,966.55
2023-05-17T04:02:49.212Z,966.52
2023-05-17T04:03:49.097Z,966.49
2023-05-17T04:04:49.419Z,966.53
2023-05-17T04:05:48.989Z,966.53
2023-05-17T04:06:48.999Z,966.53
2023-05-17T04:07:48.895Z,966.54
2023-05-17T04:08:49.023Z,966.57
2023-05-17T04:09:48.802Z,966.50
2023-05-17T04:10:48.758Z,966.55
2023-05-17T04:11:48.706Z,966.56
2023-05-17T04:12:49.049Z,966.54
2023-05-17T04:13:48.621Z,966.60
2023-05-17T04:14:48.666Z,966.60
2023-05-17T04:15:49.008Z,966.60
2023-05-17T04:16:48.481Z,966.62
2023-05-17T04:17:48.823Z,966.62
2023-05-17T04:18:48.526Z,966.66
2023-05-17T04:19:48.514Z,966.67
2023-05-17T04:20:48.300Z,966.67
2023-05-17T04:21:48.422Z,966.67
2023-05-17T04:22:48.227Z,966.68
2023-05-17T04:23:48.308Z,966.67
2023-05-17T04:24:48.384Z,966.70
2023-05-17T04:25:48.111Z,966.72
2023-05-17T04:26:48.026Z,966.72
2023-05-17T04:27:48.134Z,966.74
2023-05-17T04:28:47.947Z,966.71
2023-05-17T04:29:47.966Z,966.75
2023-05-17T04:30:47.911Z,966.70
2023-05-17T04:31:47.982Z,966.79
2023-05-17T04:32:47.852Z,966.74
2023-05-17T04:33:47.751Z,966.79
2023-05-17T04:34:47.683Z,966.79
2023-05-17T04:35:47.784Z,966.77
2023-05-17T04:36:47.573Z,966.76
2023-05-17T04:37:47.588Z,966.79
2023-05-17T04:38:47.520Z,966.80
2023-05-17T04:39:47.439Z,966.83
2023-05-17T04:40:47.610Z,966.81
2023-05-17T04:41:47.350Z,966.82
2023-05-17T04:42:47.419Z,966.80
2023-05-17T04:43:47.483Z,966.82
2023-05-17T04:44:47.439Z,966.80
2023-05-17T04:45:47.176Z,966.82
2023-05-17T04:46:47.252Z,966.78
2023-05-17T04:47:47.146Z,966.82
2023-05-17T04:48:47.419Z,966.83
2023-05-17T04:49:46.986Z,966.80
2023-05-17T04:50:47.089Z,966.84
2023-05-17T04:51:46.900Z,966.85
2023-05-17T04:52:47.088Z,966.84
2023-05-17T04:53:46.808Z,966.86
2023-05-17T04:54:47.102Z,966.88
2023-05-17T04:55:46.728Z,966.86
2023-05-17T04:56:46.912Z,966.87
2023-05-17T04:57:46.674Z,966.91
2023-05-17T04:58:46.721Z,966.89
2023-05-17T04:59:46.541Z,966.92
2023-05-17T05:00:46.546Z,966.94
2023-05-17T05:01:46.760Z,966.93
2023-05-17T05:02:46.507Z,966.93
2023-05-17T05:03:46.405Z,966.97
2023-05-17T05:04:46.386Z,966.98
2023-05-17T05:05:46.618Z,966.98
2023-05-17T05:06:46.372Z,967.01
2023-05-17T05:07:46.179Z,966.97
2023-05-17T05:08:46.141Z,967.02
2023-05-17T05:09:46.092Z,967.00
2023-05-17T05:10:46.191Z,967.03
2023-05-17T05:11:46.181Z,967.03
2023-05-17T05:12:46.001Z,967.03
2023-05-17T05:13:45.911Z,966.98
2023-05-17T05:14:45.861Z,967.00
2023-05-17T05:15:45.820Z,966.99
2023-05-17T05:16:45.827Z,966.96
2023-05-17T05:17:45.982Z,966.99
2023-05-17T05:18:45.990Z,966.99
2023-05-17T05:19:45.683Z,967.01
2023-05-17T05:20:45.583Z,967.02
2023-05-17T05:21:45.715Z,967.05
2023-05-17T05:22:45.661Z,967.04
2023-05-17T05:23:45.495Z,967.08
2023-05-17T05:24:46.499Z,967.07
2023-05-17T05:25:45.372Z,967.10
2023-05-17T05:26:45.327Z,967.07
2023-05-17T05:27:45.281Z,967.11
2023-05-17T05:28:45.309Z,967.14
2023-05-17T05:29:45.357Z,967.12
2023-05-17T05:30:45.313Z,967.12
2023-05-17T05:31:45.108Z,967.18
2023-05-17T05:32:45.140Z,967.16
2023-05-17T05:33:45.162Z,967.20
2023-05-17T05:34:45.084Z,967.20
2023-05-17T05:35:44.991Z,967.14
2023-05-17T05:36:45.259Z,967.18
2023-05-17T05:37:44.824Z,967.18
2023-05-17T05:38:44.880Z,967.21
2023-05-17T05:39:44.737Z,967.23
2023-05-17T05:40:44.772Z,967.21
2023-05-17T05:41:44.674Z,967.23
2023-05-17T05:42:44.786Z,967.22
2023-05-17T05:43:44.796Z,967.22
2023-05-17T05:44:44.513Z,967.25
2023-05-17T05:45:44.606Z,967.22
2023-05-17T05:46:44.427Z,967.26
2023-05-17T05:47:44.858Z,967.22
2023-05-17T05:48:44.379Z,967.19
2023-05-17T05:49:44.294Z,967.23
2023-05-17T05:50:44.266Z,967.27
2023-05-17T05:51:44.458Z,967.27
2023-05-17T05:52:44.155Z,967.24
2023-05-17T05:53:44.168Z,967.24
2023-05-17T05:55:05.158Z,967.26
2023-05-17T05:55:44.029Z,967.29
2023-05-17T05:56:44.097Z,967.26
2023-05-17T05:57:43.941Z,967.32
2023-05-17T05:58:45.117Z,967.29
2023-05-17T05:59:43.941Z,967.32
2023-05-17T06:03:47.198Z,967.41
2023-05-17T06:04:46.836Z,967.39
2023-05-17T06:05:50.587Z,967.39
2023-05-17T06:06:46.856Z,967.45
2023-05-17T06:07:46.681Z,967.44
2023-05-17T06:08:47.033Z,967.50
2023-05-17T06:09:46.583Z,967.48
2023-05-17T06:10:46.656Z,967.49
2023-05-17T06:11:46.489Z,967.53
2023-05-17T06:12:47.675Z,967.52
2023-05-17T06:13:46.442Z,967.54
2023-05-17T06:14:46.474Z,967.55
2023-05-17T06:15:46.320Z,967.53
2023-05-17T06:16:46.483Z,967.58
2023-05-17T06:17:46.349Z,967.58
2023-05-17T06:18:48.671Z,967.55
2023-05-17T06:19:46.149Z,967.54
2023-05-17T06:20:46.308Z,967.54
2023-05-17T06:21:46.049Z,967.54
2023-05-17T06:22:46.116Z,967.55
2023-05-17T06:23:45.949Z,967.60
2023-05-17T06:24:45.927Z,967.59
2023-05-17T06:25:45.861Z,967.60
2023-05-17T06:26:45.941Z,967.59
2023-05-17T06:27:45.830Z,967.55
2023-05-17T06:28:45.973Z,967.58
2023-05-17T06:29:45.730Z,967.61
2023-05-17T06:30:45.635Z,967.64
2023-05-17T06:31:45.612Z,967.63
2023-05-17T06:32:45.796Z,967.62
2023-05-17T06:33:45.708Z,967.64
2023-05-17T06:34:45.588Z,967.64
2023-05-17T06:35:55.566Z,967.66
2023-05-17T06:36:45.372Z,967.70
2023-05-17T06:37:45.427Z,967.72
2023-05-17T06:38:45.284Z,967.68
2023-05-17T06:39:51.647Z,967.75
2023-05-17T06:40:45.190Z,967.70
2023-05-17T06:41:45.226Z,967.71
2023-05-17T06:42:46.274Z,967.72
2023-05-17T06:43:45.061Z,967.69
2023-05-17T06:44:45.256Z,967.71
2023-05-17T06:45:45.304Z,967.76
2023-05-17T06:46:45.066Z,967.74
2023-05-17T06:47:44.937Z,967.75
2023-05-17T06:48:44.993Z,967.74
2023-05-17T06:49:44.881Z,967.74
2023-05-17T06:50:44.758Z,967.79
2023-05-17T06:51:44.897Z,967.79
2023-05-17T06:52:44.668Z,967.75
2023-05-17T06:53:44.726Z,967.75
2023-05-17T06:54:44.578Z,967.79
2023-05-17T06:55:44.709Z,967.78
2023-05-17T06:56:44.541Z,967.71
2023-05-17T06:57:44.537Z,967.74
2023-05-17T06:58:44.409Z,967.75
2023-05-17T06:59:44.538Z,967.75
2023-05-17T07:00:44.310Z,967.76
2023-05-17T07:01:44.348Z,967.82
2023-05-17T07:02:44.497Z,967.73
2023-05-17T07:03:44.438Z,967.80
2023-05-17T07:04:44.187Z,967.79
2023-05-17T07:05:44.093Z,967.77
2023-05-17T07:06:44.058Z,967.81
2023-05-17T07:07:44.291Z,967.78
2023-05-17T07:08:44.002Z,967.84
2023-05-17T07:09:44.003Z,967.83
2023-05-17T07:10:44.054Z,967.84
2023-05-17T07:11:43.842Z,967.85
2023-05-17T07:12:43.787Z,967.85
2023-05-17T07:13:43.821Z,967.82
2023-05-17T07:14:43.734Z,967.86
2023-05-17T07:15:43.835Z,967.88
2023-05-17T07:16:43.901Z,967.90
2023-05-17T07:17:43.641Z,967.93
2023-05-17T07:18:44.184Z,967.94
2023-05-17T07:19:43.608Z,967.94
2023-05-17T07:20:43.669Z,967.95
2023-05-17T07:21:43.426Z,967.92
2023-05-17T07:22:43.490Z,967.97
2023-05-17T07:23:43.330Z,967.91
2023-05-17T07:24:43.392Z,967.91
2023-05-17T07:25:43.236Z,967.91
2023-05-17T07:26:43.421Z,967.95
2023-05-17T07:27:43.416Z,967.97
2023-05-17T07:28:43.109Z,967.97
2023-05-17T07:29:43.067Z,967.99
2023-05-17T07:30:43.253Z,967.96
2023-05-17T07:31:43.090Z,968.00
2023-05-17T07:32:43.097Z,968.04
2023-05-17T07:33:42.892Z,968.02
2023-05-17T07:34:43.127Z,967.95
2023-05-17T07:35:42.796Z,968.05
2023-05-17T07:36:42.873Z,968.06
2023-05-17T07:37:42.748Z,968.03
2023-05-17T07:38:43.082Z,968.10
2023-05-17T07:39:42.871Z,968.11
2023-05-17T07:40:42.587Z,968.09
2023-05-17T07:41:42.543Z,968.12
2023-05-17T07:42:42.925Z,968.12
2023-05-17T07:43:42.452Z,968.12
2023-05-17T07:44:42.523Z,968.11
2023-05-17T07:45:42.371Z,968.16
2023-05-17T07:46:42.385Z,968.14
2023-05-17T07:47:42.620Z,968.11
2023-05-17T07:48:42.389Z,968.16
2023-05-17T07:49:42.357Z,968.14
2023-05-17T07:50:42.157Z,968.15
2023-05-17T07:51:42.274Z,968.15
2023-05-17T07:52:42.096Z,968.12
2023-05-17T07:53:42.174Z,968.16
2023-05-17T07:54:42.002Z,968.11
2023-05-17T07:55:43.037Z,968.10
2023-05-17T07:56:41.908Z,968.14
2023-05-17T07:57:42.208Z,968.16
2023-05-17T07:58:41.828Z,968.09
2023-05-17T07:59:42.016Z,968.15
2023-05-17T08:00:41.734Z,968.20
2023-05-17T08:01:41.821Z,968.21
2023-05-17T08:02:41.680Z,968.24
2023-05-17T08:03:41.840Z,968.25
2023-05-17T08:04:41.603Z,968.25
2023-05-17T08:05:41.673Z,968.30
2023-05-17T08:06:42.434Z,968.31
2023-05-17T08:07:41.673Z,968.27
2023-05-17T08:08:41.724Z,968.29
2023-05-17T08:09:41.473Z,968.28
2023-05-17T08:10:41.311Z,968.28
2023-05-17T08:11:42.110Z,968.26
2023-05-17T08:12:41.547Z,968.29
2023-05-17T08:13:41.550Z,968.29
2023-05-17T08:14:41.163Z,968.36
2023-05-17T08:15:41.521Z,968.36
2023-05-17T08:16:41.074Z,968.35
2023-05-17T08:17:41.201Z,968.38
2023-05-17T08:18:41.118Z,968.43
2023-05-17T08:19:41.526Z,968.48
2023-05-17T08:20:40.959Z,968.49
2023-05-17T08:21:40.868Z,968.39
2023-05-17T08:22:40.834Z,968.37
2023-05-17T08:23:40.959Z,968.38
2023-05-17T08:24:41.029Z,968.41
2023-05-17T08:25:44.038Z,968.43
2023-05-17T08:26:40.670Z,968.44
2023-05-17T08:27:40.630Z,968.44
2023-05-17T08:28:40.600Z,968.42
2023-05-17T08:29:40.807Z,968.44
2023-05-17T08:30:40.559Z,968.39
2023-05-17T08:31:40.678Z,968.47
2023-05-17T08:32:40.477Z,968.52
2023-05-17T08:33:40.491Z,968.52
2023-05-17T08:34:40.363Z,968.48
2023-05-17T08:35:40.432Z,968.53
2023-05-17T08:36:40.528Z,968.51
2023-05-17T08:37:40.454Z,968.54
2023-05-17T08:38:40.211Z,968.53
2023-05-17T08:39:40.199Z,968.56
2023-05-17T08:40:41.290Z,968.58
2023-05-17T08:41:40.111Z,968.53
2023-05-17T08:42:40.541Z,968.48
2023-05-17T08:43:40.287Z,968.49
2023-05-17T08:44:39.979Z,968.52
2023-05-17T08:45:40.094Z,968.53
2023-05-17T08:46:39.911Z,968.62
2023-05-17T08:47:40.323Z,968.61
2023-05-17T08:48:39.866Z,968.51
2023-05-17T08:49:39.930Z,968.47
2023-05-17T08:50:39.757Z,968.57
2023-05-17T08:51:39.720Z,968.64
2023-05-17T08:52:39.949Z,968.64
2023-05-17T08:53:39.644Z,968.55
2023-05-17T08:54:40.983Z,968.54
2023-05-17T08:55:40.500Z,968.58
2023-05-17T08:56:39.557Z,968.57
2023-05-17T08:57:39.492Z,968.57
2023-05-17T08:58:52.379Z,968.55
2023-05-17T08:59:39.424Z,968.57
2023-05-17T09:00:39.588Z,968.67
2023-05-17T09:01:39.345Z,968.73
2023-05-17T09:02:39.414Z,968.66
2023-05-17T09:03:39.384Z,968.71
2023-05-17T09:04:39.773Z,968.69
2023-05-17T09:05:39.239Z,968.79
2023-05-17T09:06:39.489Z,968.65
2023-05-17T09:07:39.128Z,968.84
2023-05-17T09:08:39.117Z,968.80
2023-05-17T09:09:39.454Z,968.74
2023-05-17T09:10:39.041Z,968.68
2023-05-17T09:11:39.278Z,968.72
2023-05-17T09:12:39.138Z,968.73
2023-05-17T09:13:39.093Z,968.68
2023-05-17T09:14:38.894Z,968.75
2023-05-17T09:15:39.099Z,968.78
2023-05-17T09:16:38.873Z,968.76
2023-05-17T09:17:38.940Z,968.72
2023-05-17T09:18:38.846Z,968.73
2023-05-17T09:19:39.021Z,968.65
2023-05-17T09:20:38.983Z,968.73
2023-05-17T09:21:38.740Z,968.76
2023-05-17T09:22:38.598Z,968.72
2023-05-17T09:23:38.751Z,968.66
2023-05-17T09:24:38.512Z,968.73
2023-05-17T09:25:38.466Z,968.75
2023-05-17T09:26:38.432Z,968.81
2023-05-17T09:27:38.786Z,968.83
2023-05-17T09:28:38.359Z,968.74
2023-05-17T09:29:38.574Z,968.72
2023-05-17T09:30:38.435Z,968.86
2023-05-17T09:31:38.250Z,968.78
2023-05-17T09:32:38.231Z,968.88
2023-05-17T09:33:38.468Z,968.81
2023-05-17T09:34:38.150Z,968.90
2023-05-17T09:35:38.434Z,968.91
2023-05-17T09:36:38.352Z,968.91
2023-05-17T09:37:38.283Z,968.71
2023-05-17T09:38:38.237Z,968.66
2023-05-17T09:39:37.982Z,968.70
2023-05-17T09:40:39.152Z,968.92
2023-05-17T09:41:38.106Z,968.91
2023-05-17T09:42:37.865Z,968.92
2023-05-17T09:43:37.837Z,968.93
2023-05-17T09:44:38.080Z,968.91
2023-05-17T09:45:37.755Z,968.99
2023-05-17T09:46:37.891Z,968.93
2023-05-17T09:47:37.909Z,968.97
2023-05-17T09:48:37.754Z,968.90
2023-05-17T09:49:37.621Z,968.88
2023-05-17T09:50:37.711Z,968.88
2023-05-17T09:51:37.563Z,968.92
2023-05-17T09:52:37.933Z,968.91
2023-05-17T09:53:37.480Z,968.85
2023-05-17T09:54:37.452Z,968.76
2023-05-17T09:55:39.311Z,968.80
2023-05-17T09:56:37.386Z,968.87
2023-05-17T09:57:37.565Z,968.81
2023-05-17T09:58:37.373Z,968.71
2023-05-17T09:59:37.295Z,968.69
2023-05-17T10:00:37.238Z,968.78
2023-05-17T10:01:37.388Z,968.80
2023-05-17T10:02:37.255Z,968.73
2023-05-17T10:03:37.806Z,968.82
2023-05-17T10:04:37.137Z,968.77
2023-05-17T10:05:37.084Z,968.65
2023-05-17T10:06:46.056Z,968.69
2023-05-17T10:07:37.234Z,968.74
2023-05-17T10:08:36.959Z,968.70
2023-05-17T10:09:37.041Z,968.76
2023-05-17T10:10:37.102Z,968.71
2023-05-17T10:11:37.046Z,968.67
2023-05-17T10:12:36.816Z,968.65
2023-05-17T10:13:37.077Z,968.60
2023-05-17T10:14:36.788Z,968.62
2023-05-17T10:15:36.898Z,968.53
2023-05-17T10:16:36.882Z,968.62
2023-05-17T10:17:36.655Z,968.65
2023-05-17T10:18:36.983Z,968.57
2023-05-17T10:19:36.653Z,968.72
2023-05-17T10:20:36.712Z,968.85
2023-05-17T10:21:36.491Z,968.78
2023-05-17T10:22:36.785Z,968.78
2023-05-17T10:23:36.422Z,968.75
2023-05-17T10:24:36.531Z,968.92
2023-05-17T10:25:36.344Z,968.71
2023-05-17T10:26:36.548Z,968.73
2023-05-17T10:27:36.263Z,968.71
2023-05-17T10:28:36.223Z,968.71
2023-05-17T10:29:36.572Z,968.71
2023-05-17T10:30:36.222Z,968.64
2023-05-17T10:31:36.387Z,968.76
2023-05-17T10:32:36.088Z,968.71
2023-05-17T10:33:36.297Z,968.74
2023-05-17T10:34:36.038Z,968.70
2023-05-17T10:35:36.204Z,968.65
2023-05-17T10:36:35.941Z,968.66
2023-05-17T10:37:36.018Z,968.65
2023-05-17T10:38:42.558Z,968.60
2023-05-17T10:39:36.079Z,968.64
2023-05-17T10:40:35.777Z,968.61
2023-05-17T10:41:36.064Z,968.68
2023-05-17T10:42:35.702Z,968.65
2023-05-17T10:43:35.853Z,968.62
2023-05-17T10:44:35.623Z,968.72
2023-05-17T10:45:35.909Z,968.65
2023-05-17T10:46:35.544Z,968.59
2023-05-17T10:47:35.737Z,968.66
2023-05-17T10:48:35.482Z,968.69
2023-05-17T10:49:35.749Z,968.94
2023-05-17T10:50:35.382Z,968.76
2023-05-17T10:51:35.347Z,968.65
2023-05-17T10:52:35.515Z,968.76
2023-05-17T10:53:35.454Z,968.61
2023-05-17T10:54:35.426Z,968.62
2023-05-17T10:55:35.305Z,968.60
2023-05-17T10:56:35.235Z,968.62
2023-05-17T10:58:35.243Z,968.59
2023-05-17T10:59:35.307Z,968.60
2023-05-17T11:00:35.047Z,968.64
2023-05-17T11:01:34.965Z,968.60
2023-05-17T11:02:34.963Z,968.58
2023-05-17T11:03:35.069Z,968.86
2023-05-17T11:04:35.058Z,968.87
2023-05-17T11:05:35.006Z,968.87
2023-05-17T11:06:34.834Z,968.63
2023-05-17T11:07:34.791Z,968.66
2023-05-17T11:08:34.801Z,968.76
2023-05-17T11:09:34.662Z,968.63
2023-05-17T11:10:34.812Z,968.85
2023-05-17T11:11:34.872Z,968.62
2023-05-17T11:12:36.015Z,968.65
2023-05-17T11:13:34.528Z,968.72
2023-05-17T11:14:34.481Z,968.72
2023-05-17T11:15:34.650Z,968.57
2023-05-17T11:16:34.407Z,968.59
2023-05-17T11:17:34.498Z,968.51
2023-05-17T11:18:36.937Z,968.49
2023-05-17T11:19:34.562Z,968.55
2023-05-17T11:20:34.965Z,968.53
2023-05-17T11:21:34.234Z,968.68
2023-05-17T11:22:34.286Z,968.58
2023-05-17T11:23:34.362Z,968.61
2023-05-17T11:24:34.308Z,968.57
2023-05-17T11:25:34.086Z,968.56
2023-05-17T11:26:34.051Z,968.58
2023-05-17T11:27:34.129Z,968.63
2023-05-17T11:28:33.970Z,968.58
2023-05-17T11:29:34.138Z,968.60
2023-05-17T11:30:33.901Z,968.61
2023-05-17T11:31:33.971Z,968.54
2023-05-17T11:32:33.868Z,968.55
2023-05-17T11:33:34.202Z,968.55
2023-05-17T11:34:33.844Z,968.58
2023-05-17T11:35:33.983Z,968.58
2023-05-17T11:36:33.692Z,968.50
2023-05-17T11:37:33.647Z,968.44
2023-05-17T11:38:33.613Z,968.47
2023-05-17T11:39:33.814Z,968.52
2023-05-17T11:40:33.535Z,968.43
2023-05-17T11:41:33.612Z,968.38
2023-05-17T11:42:33.467Z,968.36
2023-05-17T11:43:33.434Z,968.49
2023-05-17T11:44:33.444Z,968.43
2023-05-17T11:45:33.504Z,968.42
2023-05-17T11:46:33.456Z,968.46
2023-05-17T11:47:33.361Z,968.51
2023-05-17T11:48:33.678Z,968.41
2023-05-17T11:49:35.602Z,968.50
2023-05-17T11:50:33.275Z,968.52
2023-05-17T11:51:33.162Z,968.48
2023-05-17T11:52:33.702Z,968.47
2023-05-17T11:53:33.075Z,968.41
2023-05-17T11:54:33.123Z,968.33
2023-05-17T11:55:33.027Z,968.36
2023-05-17T11:56:42.786Z,968.43
2023-05-17T11:57:32.943Z,968.36
2023-05-17T11:58:33.151Z,968.31
2023-05-17T11:59:32.864Z,968.33
2023-05-17T12:00:32.943Z,968.38
2023-05-17T12:01:32.795Z,968.34
2023-05-17T12:02:33.070Z,968.34
2023-05-17T12:03:32.725Z,968.34
2023-05-17T12:04:33.392Z,968.29
2023-05-17T12:05:32.816Z,968.22
2023-05-17T12:06:32.834Z,968.32
2023-05-17T12:07:32.592Z,968.33
2023-05-17T12:08:32.582Z,968.25
2023-05-17T12:09:32.523Z,968.28
2023-05-17T12:10:34.660Z,968.29
2023-05-17T12:11:32.496Z,968.29
2023-05-17T12:12:32.401Z,968.40
2023-05-17T12:13:32.372Z,968.31
2023-05-17T12:14:32.438Z,968.33
2023-05-17T12:15:32.299Z,968.37
2023-05-17T12:16:32.448Z,968.42
2023-05-17T12:17:32.614Z,968.38
2023-05-17T12:18:32.287Z,968.38
2023-05-17T12:19:32.266Z,968.32
2023-05-17T12:20:32.377Z,968.39
2023-05-17T12:21:32.094Z,968.37
2023-05-17T12:22:32.278Z,968.24
2023-05-17T12:23:32.084Z,968.31
2023-05-17T12:24:32.029Z,968.30
2023-05-17T12:25:31.948Z,968.30
2023-05-17T12:26:32.104Z,968.26
2023-05-17T12:27:31.886Z,968.31
2023-05-17T12:28:31.912Z,968.33
2023-05-17T12:29:31.974Z,968.20
2023-05-17T12:30:31.777Z,968.25
2023-05-17T12:31:31.752Z,968.32